TimeCDT,TemperatureF,Dew PointF,Humidity,Sea Level PressureIn,VisibilityMPH,Wind Direction,Wind SpeedMPH,Gust SpeedMPH,PrecipitationIn,Events,Conditions,WindDirDegrees,DateUTC
12:15 AM,27.1,20.5,76,29.96,10.0,West,6.9,-,N/A,,Clear,270,2014-03-20 05:15:00
12:35 AM,26.1,20.3,79,29.96,10.0,West,5.8,-,N/A,,Clear,270,2014-03-20 05:35:00
12:55 AM,25.3,19.9,80,29.96,10.0,West,5.8,-,N/A,,Clear,260,2014-03-20 05:55:00
1:15 AM,25.0,19.9,81,29.96,10.0,West,6.9,-,N/A,,Scattered Clouds,270,2014-03-20 06:15:00
1:35 AM,25.2,20.8,84,29.97,10.0,West,5.8,-,N/A,,Overcast,270,2014-03-20 06:35:00
1:55 AM,26.2,22.1,84,29.97,10.0,WNW,4.6,-,N/A,,Overcast,290,2014-03-20 06:55:00
2:15 AM,25.7,21.9,86,29.97,10.0,WNW,4.6,-,N/A,,Mostly Cloudy,290,2014-03-20 07:15:00
2:35 AM,24.1,20.7,87,29.97,10.0,West,4.6,-,N/A,,Scattered Clouds,280,2014-03-20 07:35:00
2:55 AM,23.4,22.6,97,29.97,10.0,WNW,3.5,-,N/A,,Mostly Cloudy,300,2014-03-20 07:55:00
3:15 AM,20.7,20.3,99,29.97,7.0,Calm,Calm,-,N/A,,Scattered Clouds,0,2014-03-20 08:15:00
3:35 AM,19.0,19.0,100,29.97,3.0,Calm,Calm,-,N/A,,Clear,0,2014-03-20 08:35:00
3:55 AM,17.4,17.4,100,29.97,2.5,Calm,Calm,-,N/A,,Clear,0,2014-03-20 08:55:00
4:15 AM,15.3,15.3,100,29.97,0.5,Calm,Calm,-,N/A,Fog,Light Freezing Fog,0,2014-03-20 09:15:00
4:35 AM,14.2,13.8,98,29.97,1.2,Calm,Calm,-,N/A,,Mist,0,2014-03-20 09:35:00
4:55 AM,12.7,12.0,97,29.97,4.0,Calm,Calm,-,N/A,,Clear,0,2014-03-20 09:55:00
5:15 AM,13.6,13.1,98,29.98,5.0,Calm,Calm,-,N/A,,Mostly Cloudy,0,2014-03-20 10:15:00
5:35 AM,16.2,16.2,100,29.99,7.0,SSW,4.6,-,N/A,,Overcast,210,2014-03-20 10:35:00
5:55 AM,19.9,19.9,100,29.99,7.0,South,3.5,-,N/A,,Overcast,180,2014-03-20 10:55:00
6:15 AM,23.0,23.0,100,29.98,7.0,South,3.5,-,N/A,,Overcast,180,2014-03-20 11:15:00
6:35 AM,23.0,23.0,100,29.99,5.0,Calm,Calm,-,N/A,,Overcast,0,2014-03-20 11:35:00
6:55 AM,23.9,23.9,100,29.99,7.0,Calm,Calm,-,N/A,,Overcast,0,2014-03-20 11:55:00
7:15 AM,23.9,23.9,100,30.00,5.0,Calm,Calm,-,N/A,,Overcast,0,2014-03-20 12:15:00
7:35 AM,24.8,24.8,100,30.00,4.0,Calm,Calm,-,N/A,,Overcast,0,2014-03-20 12:35:00
7:55 AM,24.8,24.8,100,30.00,4.0,South,3.5,-,N/A,,Overcast,190,2014-03-20 12:55:00
8:15 AM,25.7,25.7,100,30.00,4.0,SSW,4.6,-,N/A,,Overcast,200,2014-03-20 13:15:00
8:35 AM,25.7,25.7,100,30.00,4.0,SW,3.5,-,N/A,,Overcast,220,2014-03-20 13:35:00
8:55 AM,26.6,26.6,100,30.00,4.0,Calm,Calm,-,N/A,,Overcast,0,2014-03-20 13:55:00
9:15 AM,27.3,26.6,97,30.00,5.0,Calm,Calm,-,N/A,,Overcast,0,2014-03-20 14:15:00
9:35 AM,28.2,27.0,95,30.01,5.0,WSW,3.5,-,N/A,,Overcast,240,2014-03-20 14:35:00
9:55 AM,28.6,27.3,95,30.02,5.0,Calm,Calm,-,N/A,,Overcast,0,2014-03-20 14:55:00
10:15 AM,29.3,27.7,94,30.02,5.0,Calm,Calm,-,0.01,,Overcast,0,2014-03-20 15:15:00
10:35 AM,30.2,28.0,92,30.01,5.0,Calm,Calm,-,0.01,,Overcast,0,2014-03-20 15:35:00
10:55 AM,31.5,28.4,88,30.01,7.0,Calm,Calm,-,0.01,,Mostly Cloudy,0,2014-03-20 15:55:00
11:15 AM,32.0,28.8,88,30.01,7.0,Calm,Calm,-,N/A,,Overcast,0,2014-03-20 16:15:00
11:35 AM,33.1,29.3,86,30.00,7.0,Calm,Calm,-,N/A,,Mostly Cloudy,0,2014-03-20 16:35:00
11:55 AM,34.0,28.8,81,30.00,7.0,SE,3.5,-,N/A,,Scattered Clouds,130,2014-03-20 16:55:00
12:15 PM,34.7,27.5,75,29.99,7.0,SE,5.8,-,N/A,,Clear,130,2014-03-20 17:15:00
12:35 PM,35.8,28.0,73,29.99,7.0,East,4.6,-,N/A,,Mostly Cloudy,100,2014-03-20 17:35:00
12:55 PM,36.7,28.6,72,29.99,10.0,South,3.5,-,N/A,,Mostly Cloudy,170,2014-03-20 17:55:00
1:15 PM,37.4,28.4,70,29.99,10.0,Calm,Calm,-,N/A,,Mostly Cloudy,0,2014-03-20 18:15:00
1:35 PM,37.0,28.2,70,29.98,10.0,Calm,Calm,-,N/A,,Mostly Cloudy,0,2014-03-20 18:35:00
1:55 PM,38.8,28.2,66,29.97,10.0,South,6.9,-,N/A,,Overcast,190,2014-03-20 18:55:00
2:15 PM,39.2,28.4,65,29.97,10.0,SSE,6.9,-,N/A,,Mostly Cloudy,150,2014-03-20 19:15:00
2:35 PM,38.7,28.4,67,29.97,10.0,South,6.9,-,N/A,,Mostly Cloudy,170,2014-03-20 19:35:00
2:55 PM,38.8,28.0,65,29.97,10.0,South,9.2,-,N/A,,Mostly Cloudy,180,2014-03-20 19:55:00
3:15 PM,38.7,27.5,64,29.96,10.0,South,5.8,-,N/A,,Mostly Cloudy,170,2014-03-20 20:15:00
3:35 PM,40.5,27.0,59,29.95,10.0,SSE,5.8,-,N/A,,Mostly Cloudy,160,2014-03-20 20:35:00
3:55 PM,40.3,26.4,58,29.94,10.0,SSW,3.5,-,N/A,,Mostly Cloudy,200,2014-03-20 20:55:00
4:15 PM,40.3,26.4,58,29.94,10.0,SSE,6.9,-,N/A,,Scattered Clouds,160,2014-03-20 21:15:00
4:35 PM,39.0,25.9,59,29.94,10.0,SSE,8.1,-,N/A,,Scattered Clouds,160,2014-03-20 21:35:00
4:55 PM,39.2,26.2,60,29.94,10.0,South,10.4,-,N/A,,Mostly Cloudy,170,2014-03-20 21:55:00
5:15 PM,39.2,26.2,60,29.94,10.0,South,11.5,-,N/A,,Mostly Cloudy,170,2014-03-20 22:15:00
5:35 PM,40.1,26.2,58,29.94,10.0,South,10.4,-,N/A,,Scattered Clouds,190,2014-03-20 22:35:00
5:55 PM,39.2,25.7,58,29.94,10.0,South,9.2,-,N/A,,Clear,190,2014-03-20 22:55:00
6:15 PM,39.7,25.5,57,29.94,10.0,South,9.2,-,N/A,,Clear,190,2014-03-20 23:15:00
6:35 PM,39.2,25.7,58,29.94,10.0,South,9.2,-,N/A,,Clear,190,2014-03-20 23:35:00
6:55 PM,38.5,26.2,61,29.94,10.0,South,6.9,-,N/A,,Clear,180,2014-03-20 23:55:00
7:15 PM,37.9,26.4,63,29.94,10.0,South,5.8,-,N/A,,Scattered Clouds,190,2014-03-21 00:15:00
7:35 PM,37.4,26.8,66,29.94,10.0,South,4.6,-,N/A,,Overcast,170,2014-03-21 00:35:00
7:55 PM,36.5,27.1,69,29.94,10.0,SSW,5.8,-,N/A,,Overcast,200,2014-03-21 00:55:00
8:15 PM,36.5,27.3,69,29.95,10.0,South,5.8,-,N/A,,Overcast,190,2014-03-21 01:15:00
8:35 PM,36.5,27.0,68,29.95,10.0,South,5.8,-,N/A,,Overcast,190,2014-03-21 01:35:00
8:55 PM,35.6,26.6,70,29.95,10.0,South,6.9,-,N/A,,Mostly Cloudy,180,2014-03-21 01:55:00
9:15 PM,35.1,25.7,69,29.95,10.0,South,6.9,-,N/A,,Scattered Clouds,180,2014-03-21 02:15:00
9:35 PM,33.8,25.5,72,29.95,10.0,South,4.6,-,N/A,,Scattered Clouds,170,2014-03-21 02:35:00
9:55 PM,33.4,25.3,72,29.95,10.0,SSE,4.6,-,N/A,,Clear,160,2014-03-21 02:55:00
10:15 PM,32.9,24.8,72,29.95,10.0,SSE,4.6,-,N/A,,Clear,150,2014-03-21 03:15:00
10:35 PM,32.4,24.6,73,29.95,10.0,South,4.6,-,N/A,,Clear,170,2014-03-21 03:35:00
10:55 PM,31.6,24.6,75,29.94,10.0,SSE,5.8,-,N/A,,Clear,160,2014-03-21 03:55:00
11:15 PM,32.0,24.6,74,29.94,10.0,SSE,4.6,-,N/A,,Clear,160,2014-03-21 04:15:00
11:35 PM,31.5,24.3,75,29.93,10.0,SE,5.8,-,N/A,,Clear,140,2014-03-21 04:35:00
11:55 PM,30.2,23.9,77,29.91,10.0,SE,6.9,-,N/A,,Clear,130,2014-03-21 04:55:00